Time;durP1;ratioP1;P1;durP2;ratioP2;P2;SDS_P1;SDS_P2;PMS_P1;PMS_P2;Temp;Humidity;BMP_temperature;BMP_pressure;BME280_temperature;BME280_humidity;BME280_pressure;Samples;Min_cycle;Max_cycle;Signal;HPM_P1;HPM_P2
2021/08/23 00:00:31;;;;;;;3.60;2.85;;;;;;;;;;5056957;28;20191;-84
2021/08/23 00:02:57;;;;;;;6.57;3.00;;;;;;;;;;5041456;28;20679;-85
2021/08/23 00:05:23;;;;;;;3.63;2.70;;;;;;;;;;5046446;28;20193;-83
2021/08/23 00:07:49;;;;;;;6.32;2.35;;;;;;;;;;5045286;28;20407;-83
2021/08/23 00:10:15;;;;;;;3.73;2.80;;;;;;;;;;5048214;28;20192;-84
2021/08/23 00:12:41;;;;;;;2.70;2.30;;;;;;;;;;5054325;28;20468;-82
2021/08/23 00:15:08;;;;;;;6.13;2.53;;;;;;;;;;5060454;28;20645;-84
2021/08/23 00:17:34;;;;;;;3.63;2.65;;;;;;;;;;5066837;28;20177;-84
2021/08/23 00:20:00;;;;;;;4.93;2.55;;;;;;;;;;5075392;28;20174;-85
2021/08/23 00:22:33;;;;;;;3.58;2.60;;;;;;;;;;5053044;28;20217;-84
2021/08/23 00:25:00;;;;;;;2.47;2.13;;;;;;;;;;5049212;28;20247;-84
2021/08/23 00:27:30;;;;;;;6.88;3.35;;;;;;;;;;5047585;28;20177;-84
2021/08/23 00:29:56;;;;;;;4.10;2.80;;;;;;;;;;5044206;28;20191;-84
2021/08/23 00:32:22;;;;;;;3.30;2.90;;;;;;;;;;5049903;28;20257;-84
2021/08/23 00:34:48;;;;;;;5.40;2.90;;;;;;;;;;5049255;28;20216;-84
2021/08/23 00:37:15;;;;;;;7.75;3.03;;;;;;;;;;5047561;28;20185;-84
2021/08/23 00:39:41;;;;;;;5.60;2.47;;;;;;;;;;5058909;28;20262;-84
2021/08/23 00:42:07;;;;;;;3.45;2.53;;;;;;;;;;5044130;28;20194;-84
2021/08/23 00:44:34;;;;;;;3.25;2.20;;;;;;;;;;5048587;28;20238;-83
2021/08/23 00:47:00;;;;;;;3.45;2.13;;;;;;;;;;5049745;28;20173;-84
2021/08/23 00:49:27;;;;;;;2.87;2.23;;;;;;;;;;5048672;28;20185;-85
2021/08/23 00:51:53;;;;;;;2.45;2.25;;;;;;;;;;5047526;28;20479;-84
2021/08/23 00:54:20;;;;;;;4.47;2.47;;;;;;;;;;5046856;28;20197;-84
2021/08/23 00:56:46;;;;;;;4.18;3.25;;;;;;;;;;5063147;28;20177;-84
2021/08/23 00:59:12;;;;;;;2.95;2.75;;;;;;;;;;5055763;28;20185;-84
2021/08/23 01:01:45;;;;;;;4.07;2.67;;;;;;;;;;5059407;28;20227;-84
2021/08/23 01:04:15;;;;;;;3.38;2.53;;;;;;;;;;5053620;28;20471;-85
2021/08/23 01:06:42;;;;;;;2.80;2.60;;;;;;;;;;5046054;28;20169;-84
2021/08/23 01:09:11;;;;;;;4.22;2.78;;;;;;;;;;5043887;28;20220;-84
2021/08/23 01:11:42;;;;;;;5.22;2.80;;;;;;;;;;5049239;28;20177;-83
2021/08/23 01:14:08;;;;;;;4.28;2.75;;;;;;;;;;5045986;28;20236;-84
2021/08/23 01:16:34;;;;;;;3.75;2.70;;;;;;;;;;5048249;28;20192;-84
2021/08/23 01:19:00;;;;;;;5.22;2.67;;;;;;;;;;5047364;28;20225;-84
2021/08/23 01:21:27;;;;;;;4.10;3.13;;;;;;;;;;5046129;28;20230;-84
2021/08/23 01:23:53;;;;;;;5.50;2.88;;;;;;;;;;5042711;28;20214;-84
2021/08/23 01:26:24;;;;;;;6.50;3.78;;;;;;;;;;5048904;28;20169;-84
2021/08/23 01:29:03;;;;;;;3.55;2.70;;;;;;;;;;5046048;28;20574;-84
2021/08/23 01:31:42;;;;;;;2.50;2.30;;;;;;;;;;5046435;28;20277;-83
2021/08/23 01:34:09;;;;;;;4.82;2.97;;;;;;;;;;5046662;28;20587;-84
2021/08/23 01:36:35;;;;;;;3.10;2.80;;;;;;;;;;5047333;28;20181;-84
2021/08/23 01:39:01;;;;;;;3.95;3.00;;;;;;;;;;5040954;28;20190;-83
2021/08/23 01:41:27;;;;;;;4.78;2.83;;;;;;;;;;5060608;28;20419;-84
2021/08/23 01:43:53;;;;;;;4.15;2.72;;;;;;;;;;5047972;28;20247;-84
2021/08/23 01:46:19;;;;;;;3.80;2.60;;;;;;;;;;5048817;28;20181;-84
2021/08/23 01:48:46;;;;;;;3.33;2.78;;;;;;;;;;5058492;28;20180;-84
2021/08/23 01:51:12;;;;;;;4.10;3.13;;;;;;;;;;5056106;28;20187;-84
2021/08/23 01:53:38;;;;;;;4.67;2.60;;;;;;;;;;5046314;28;20185;-82
2021/08/23 01:56:04;;;;;;;3.70;2.30;;;;;;;;;;5048299;28;20463;-84
2021/08/23 01:58:31;;;;;;;7.30;2.85;;;;;;;;;;5047263;28;20189;-84
2021/08/23 02:00:57;;;;;;;3.50;2.75;;;;;;;;;;5046137;28;20196;-85
2021/08/23 02:03:23;;;;;;;3.33;2.10;;;;;;;;;;5044536;28;20820;-84
2021/08/23 02:05:49;;;;;;;4.80;2.40;;;;;;;;;;5060735;28;20560;-83
2021/08/23 02:08:15;;;;;;;10.23;3.20;;;;;;;;;;5056695;28;20192;-83
2021/08/23 02:10:41;;;;;;;3.78;2.80;;;;;;;;;;5048281;28;20433;-84
2021/08/23 02:13:07;;;;;;;4.65;2.67;;;;;;;;;;5047092;28;20192;-84
2021/08/23 02:15:33;;;;;;;11.10;5.47;;;;;;;;;;5046999;28;20216;-84
2021/08/23 02:17:59;;;;;;;5.00;2.90;;;;;;;;;;5041674;28;20503;-84
2021/08/23 02:20:25;;;;;;;5.00;2.93;;;;;;;;;;5047429;28;20421;-84
2021/08/23 02:22:51;;;;;;;2.10;2.00;;;;;;;;;;5051748;28;21083;-85
2021/08/23 02:25:21;;;;;;;4.47;2.80;;;;;;;;;;5052617;28;20193;-84
2021/08/23 02:27:47;;;;;;;4.53;2.80;;;;;;;;;;5044347;28;20641;-85
2021/08/23 02:30:13;;;;;;;9.68;3.30;;;;;;;;;;5056792;28;20183;-84
2021/08/23 02:32:39;;;;;;;2.90;2.30;;;;;;;;;;5046522;28;20843;-83
2021/08/23 02:35:06;;;;;;;6.93;2.40;;;;;;;;;;5044261;28;20201;-84
2021/08/23 02:37:32;;;;;;;5.53;3.47;;;;;;;;;;5045460;28;20440;-84
2021/08/23 02:39:58;;;;;;;4.00;2.57;;;;;;;;;;5046294;28;20296;-83
2021/08/23 02:42:23;;;;;;;3.57;2.40;;;;;;;;;;5044090;28;20621;-84
2021/08/23 02:44:49;;;;;;;3.80;2.50;;;;;;;;;;5042999;28;20468;-83
2021/08/23 02:47:16;;;;;;;2.67;2.47;;;;;;;;;;5047191;28;20439;-84
2021/08/23 02:49:41;;;;;;;4.90;2.42;;;;;;;;;;5046790;28;20208;-82
2021/08/23 02:52:07;;;;;;;4.33;2.50;;;;;;;;;;5037782;28;20186;-84
2021/08/23 02:54:33;;;;;;;4.30;3.03;;;;;;;;;;5033796;28;20526;-85
2021/08/23 02:57:00;;;;;;;5.27;2.67;;;;;;;;;;5040104;28;20445;-84
2021/08/23 02:59:26;;;;;;;5.43;3.15;;;;;;;;;;5047367;28;20424;-82
2021/08/23 03:01:52;;;;;;;4.20;2.70;;;;;;;;;;5046088;28;20186;-85
2021/08/23 03:04:18;;;;;;;4.23;2.63;;;;;;;;;;5045826;28;20475;-84
2021/08/23 03:06:43;;;;;;;5.83;2.63;;;;;;;;;;5046992;28;20921;-85
2021/08/23 03:09:09;;;;;;;4.37;2.83;;;;;;;;;;5041364;28;20448;-83
2021/08/23 03:11:35;;;;;;;5.77;3.13;;;;;;;;;;5045354;28;20444;-84
2021/08/23 03:14:02;;;;;;;5.18;3.03;;;;;;;;;;5058256;28;20457;-83
2021/08/23 03:16:28;;;;;;;3.22;2.53;;;;;;;;;;5049027;28;20185;-84
2021/08/23 03:18:54;;;;;;;5.20;2.60;;;;;;;;;;5053874;28;20220;-85
2021/08/23 03:21:20;;;;;;;2.90;2.25;;;;;;;;;;5044293;28;20182;-85
2021/08/23 03:23:46;;;;;;;5.23;3.90;;;;;;;;;;5059283;28;20352;-84
2021/08/23 03:26:11;;;;;;;4.40;2.92;;;;;;;;;;5046972;28;20771;-84
2021/08/23 03:28:37;;;;;;;3.93;2.53;;;;;;;;;;5045832;28;20213;-83
2021/08/23 03:31:04;;;;;;;4.27;3.10;;;;;;;;;;5045608;28;20436;-84
2021/08/23 03:33:31;;;;;;;5.75;3.03;;;;;;;;;;5045210;28;20478;-85
2021/08/23 03:35:57;;;;;;;4.95;2.97;;;;;;;;;;5041920;28;20202;-84
2021/08/23 03:38:23;;;;;;;6.10;3.17;;;;;;;;;;5056609;28;20177;-85
2021/08/23 03:40:49;;;;;;;4.90;3.20;;;;;;;;;;5046527;28;20459;-85
2021/08/23 03:43:14;;;;;;;8.03;3.10;;;;;;;;;;5046084;28;20475;-83
2021/08/23 03:45:40;;;;;;;5.40;2.80;;;;;;;;;;5055978;28;20537;-85
2021/08/23 03:48:07;;;;;;;6.27;2.90;;;;;;;;;;5045257;28;20443;-84
2021/08/23 03:50:33;;;;;;;4.10;2.75;;;;;;;;;;5066038;28;20481;-85
2021/08/23 03:52:59;;;;;;;3.63;2.58;;;;;;;;;;5061169;28;20177;-84
2021/08/23 03:55:25;;;;;;;4.27;3.47;;;;;;;;;;5054406;28;20545;-84
2021/08/23 03:57:51;;;;;;;4.57;2.70;;;;;;;;;;5051874;28;20435;-84
2021/08/23 04:00:17;;;;;;;4.90;3.10;;;;;;;;;;5058660;28;20438;-84
2021/08/23 04:02:45;;;;;;;5.38;3.08;;;;;;;;;;5064033;28;20570;-84
2021/08/23 04:05:11;;;;;;;3.95;2.67;;;;;;;;;;5050483;28;20169;-85
2021/08/23 04:07:37;;;;;;;3.92;3.35;;;;;;;;;;5048139;28;20220;-85
2021/08/23 04:10:03;;;;;;;5.13;3.17;;;;;;;;;;5048766;28;20189;-84
2021/08/23 04:12:29;;;;;;;3.20;2.83;;;;;;;;;;5045125;28;20502;-84
2021/08/23 04:14:55;;;;;;;4.70;3.33;;;;;;;;;;5058684;28;20191;-84
2021/08/23 04:17:21;;;;;;;5.13;3.87;;;;;;;;;;5064879;28;20442;-84
2021/08/23 04:19:47;;;;;;;4.03;3.00;;;;;;;;;;5058780;28;20505;-84
2021/08/23 04:22:13;;;;;;;4.60;2.75;;;;;;;;;;5055419;28;20190;-84
2021/08/23 04:24:39;;;;;;;5.22;3.25;;;;;;;;;;5048873;28;20185;-84
2021/08/23 04:27:05;;;;;;;4.05;2.95;;;;;;;;;;5044347;28;20178;-84
2021/08/23 04:29:31;;;;;;;5.88;3.97;;;;;;;;;;5050208;28;20174;-84
2021/08/23 04:31:57;;;;;;;3.78;2.75;;;;;;;;;;5055653;28;20216;-84
2021/08/23 04:34:23;;;;;;;3.20;2.60;;;;;;;;;;5055547;28;20193;-86
2021/08/23 04:36:49;;;;;;;12.95;4.38;;;;;;;;;;5058407;28;20463;-84
2021/08/23 04:39:15;;;;;;;3.40;2.93;;;;;;;;;;5043673;28;20186;-84
2021/08/23 04:41:42;;;;;;;4.53;3.60;;;;;;;;;;5047220;28;20436;-85
2021/08/23 04:44:08;;;;;;;7.15;3.30;;;;;;;;;;5057075;28;20193;-85
2021/08/23 04:46:35;;;;;;;5.85;3.88;;;;;;;;;;5052512;28;20181;-84
2021/08/23 04:49:01;;;;;;;4.68;2.70;;;;;;;;;;5047439;28;20186;-84
2021/08/23 04:51:27;;;;;;;4.60;3.47;;;;;;;;;;5047513;28;20173;-85
2021/08/23 04:53:53;;;;;;;5.90;3.30;;;;;;;;;;5043921;28;20425;-84
2021/08/23 04:56:19;;;;;;;5.47;2.80;;;;;;;;;;5049800;28;20197;-84
2021/08/23 04:58:45;;;;;;;8.10;3.40;;;;;;;;;;5047257;28;20440;-84
2021/08/23 05:01:11;;;;;;;3.72;3.42;;;;;;;;;;5048811;28;20432;-84
2021/08/23 05:03:37;;;;;;;3.90;3.15;;;;;;;;;;5044201;28;20259;-84
2021/08/23 05:06:03;;;;;;;5.67;3.70;;;;;;;;;;5059505;28;20587;-82
2021/08/23 05:08:29;;;;;;;8.18;4.40;;;;;;;;;;5049297;28;20424;-85
2021/08/23 05:10:55;;;;;;;4.75;3.42;;;;;;;;;;5046819;28;20189;-84
2021/08/23 05:13:21;;;;;;;4.25;3.45;;;;;;;;;;5049291;28;20287;-85
2021/08/23 05:15:47;;;;;;;4.47;3.50;;;;;;;;;;5056412;28;20684;-84
2021/08/23 05:18:13;;;;;;;11.55;3.50;;;;;;;;;;5042803;28;20480;-84
2021/08/23 05:20:39;;;;;;;6.97;3.57;;;;;;;;;;5048196;28;20205;-84
2021/08/23 05:23:05;;;;;;;5.60;3.20;;;;;;;;;;5045456;28;20498;-84
2021/08/23 05:25:33;;;;;;;4.78;3.58;;;;;;;;;;5047793;28;20205;-84
2021/08/23 05:28:01;;;;;;;3.50;3.17;;;;;;;;;;5046597;28;20251;-84
2021/08/23 05:30:27;;;;;;;5.63;3.80;;;;;;;;;;5059135;28;20177;-85
2021/08/23 05:32:53;;;;;;;4.25;3.15;;;;;;;;;;5043178;28;20502;-84
2021/08/23 05:35:19;;;;;;;7.68;4.00;;;;;;;;;;5048930;28;20181;-84
2021/08/23 05:37:45;;;;;;;4.80;2.95;;;;;;;;;;5048591;28;20192;-84
2021/08/23 05:40:11;;;;;;;3.22;2.92;;;;;;;;;;5047332;28;20227;-84
2021/08/23 05:42:37;;;;;;;11.02;3.92;;;;;;;;;;5053750;28;20233;-84
2021/08/23 05:45:03;;;;;;;6.05;3.30;;;;;;;;;;5058230;28;20209;-83
2021/08/23 05:47:29;;;;;;;6.50;3.33;;;;;;;;;;5056014;28;20243;-84
2021/08/23 05:49:56;;;;;;;6.10;4.03;;;;;;;;;;5058518;28;20362;-84
2021/08/23 05:52:22;;;;;;;7.78;4.00;;;;;;;;;;5052460;28;20201;-85
2021/08/23 05:54:49;;;;;;;5.20;4.00;;;;;;;;;;5047052;28;20192;-84
2021/08/23 05:57:15;;;;;;;4.38;3.03;;;;;;;;;;5044147;28;20769;-84
2021/08/23 05:59:41;;;;;;;7.30;4.00;;;;;;;;;;5045289;28;20188;-84
2021/08/23 06:02:07;;;;;;;8.65;3.95;;;;;;;;;;5056031;28;20427;-84
2021/08/23 06:04:33;;;;;;;5.55;4.43;;;;;;;;;;5053990;28;20215;-83
2021/08/23 06:07:00;;;;;;;8.77;4.20;;;;;;;;;;5055431;28;20189;-84
2021/08/23 06:09:26;;;;;;;5.53;4.07;;;;;;;;;;5044769;28;20227;-84
2021/08/23 06:11:52;;;;;;;5.43;3.35;;;;;;;;;;5041287;28;20174;-84
2021/08/23 06:14:18;;;;;;;11.30;4.95;;;;;;;;;;5047977;28;20180;-84
2021/08/23 06:16:44;;;;;;;6.82;3.65;;;;;;;;;;5051771;28;20190;-84
2021/08/23 06:19:10;;;;;;;7.40;4.13;;;;;;;;;;5053530;28;20323;-84
2021/08/23 06:21:37;;;;;;;6.05;4.60;;;;;;;;;;5057171;28;20527;-85
2021/08/23 06:24:03;;;;;;;6.55;3.95;;;;;;;;;;5042176;28;20205;-84
2021/08/23 06:26:29;;;;;;;7.57;3.60;;;;;;;;;;5064288;28;20572;-84
2021/08/23 06:28:55;;;;;;;4.90;3.88;;;;;;;;;;5054407;28;20537;-84
2021/08/23 06:31:21;;;;;;;9.80;4.63;;;;;;;;;;5051412;28;20182;-84
2021/08/23 06:33:47;;;;;;;7.37;4.23;;;;;;;;;;5046976;28;20403;-84
2021/08/23 06:36:13;;;;;;;5.17;4.20;;;;;;;;;;5041936;28;20438;-83
2021/08/23 06:38:38;;;;;;;6.90;4.37;;;;;;;;;;5061549;28;20503;-84
2021/08/23 06:41:04;;;;;;;5.83;4.50;;;;;;;;;;5045588;28;20416;-84
2021/08/23 06:43:30;;;;;;;5.07;4.53;;;;;;;;;;5046391;28;20464;-84
2021/08/23 06:45:56;;;;;;;8.90;4.63;;;;;;;;;;5046706;28;20444;-84
2021/08/23 06:48:22;;;;;;;6.63;4.83;;;;;;;;;;5040622;28;20441;-84
2021/08/23 06:50:48;;;;;;;6.70;5.00;;;;;;;;;;5057343;28;20447;-84
2021/08/23 06:53:14;;;;;;;6.25;4.57;;;;;;;;;;5046705;28;20508;-84
2021/08/23 06:55:40;;;;;;;9.27;4.28;;;;;;;;;;5044552;28;20185;-84
2021/08/23 06:58:07;;;;;;;4.80;3.90;;;;;;;;;;5045982;28;20239;-85
2021/08/23 07:00:33;;;;;;;4.63;4.20;;;;;;;;;;5057249;28;20185;-85
2021/08/23 07:03:00;;;;;;;5.05;4.53;;;;;;;;;;5042080;28;20236;-83
2021/08/23 07:05:26;;;;;;;6.28;4.07;;;;;;;;;;5047514;28;20547;-83
2021/08/23 07:07:52;;;;;;;5.82;4.53;;;;;;;;;;5046099;28;20178;-84
2021/08/23 07:10:18;;;;;;;7.50;4.53;;;;;;;;;;5045840;28;20223;-85
2021/08/23 07:12:44;;;;;;;7.00;3.60;;;;;;;;;;5055220;28;20447;-83
2021/08/23 07:15:11;;;;;;;6.68;4.78;;;;;;;;;;5040854;28;20467;-85
2021/08/23 07:17:37;;;;;;;5.65;4.68;;;;;;;;;;5045198;28;20178;-83
2021/08/23 07:20:03;;;;;;;7.33;4.70;;;;;;;;;;5054418;28;20212;-84
2021/08/23 07:22:29;;;;;;;6.55;5.05;;;;;;;;;;5048322;28;20480;-82
2021/08/23 07:24:55;;;;;;;5.15;3.95;;;;;;;;;;5045809;28;20190;-85
2021/08/23 07:27:21;;;;;;;6.90;4.20;;;;;;;;;;5042839;28;20215;-84
2021/08/23 07:29:47;;;;;;;4.82;4.28;;;;;;;;;;5058865;28;20425;-84
2021/08/23 07:32:13;;;;;;;4.72;4.00;;;;;;;;;;5047656;28;20183;-85
2021/08/23 07:34:40;;;;;;;9.27;4.05;;;;;;;;;;5045577;28;20216;-84
2021/08/23 07:37:06;;;;;;;5.03;4.53;;;;;;;;;;5050377;28;20257;-84
2021/08/23 07:39:32;;;;;;;10.00;4.57;;;;;;;;;;5056051;28;20205;-84
2021/08/23 07:41:58;;;;;;;5.57;4.45;;;;;;;;;;5058307;28;20191;-85
2021/08/23 07:44:24;;;;;;;5.43;3.90;;;;;;;;;;5046585;28;20195;-85
2021/08/23 07:46:50;;;;;;;5.70;3.87;;;;;;;;;;5044956;28;20251;-85
2021/08/23 07:49:16;;;;;;;5.87;4.03;;;;;;;;;;5045556;28;20442;-85
2021/08/23 07:51:42;;;;;;;9.30;5.43;;;;;;;;;;5043572;28;20441;-84
2021/08/23 07:54:08;;;;;;;9.10;4.47;;;;;;;;;;5038033;28;20458;-85
2021/08/23 07:56:34;;;;;;;5.07;3.90;;;;;;;;;;5046033;28;20423;-82
2021/08/23 07:59:00;;;;;;;4.70;4.25;;;;;;;;;;5044527;28;20176;-85
2021/08/23 08:01:26;;;;;;;4.97;3.97;;;;;;;;;;5045067;28;20674;-84
2021/08/23 08:03:52;;;;;;;4.93;4.50;;;;;;;;;;5043537;28;20493;-84
2021/08/23 08:06:19;;;;;;;7.03;3.72;;;;;;;;;;5055874;28;20193;-83
2021/08/23 08:08:45;;;;;;;6.78;3.78;;;;;;;;;;5042568;28;20210;-84
2021/08/23 08:11:11;;;;;;;3.97;3.20;;;;;;;;;;5057815;28;20218;-84
2021/08/23 08:13:37;;;;;;;5.68;3.47;;;;;;;;;;5048229;28;20270;-85
2021/08/23 08:16:03;;;;;;;7.78;3.45;;;;;;;;;;5049190;28;20188;-84
2021/08/23 08:18:29;;;;;;;6.10;3.83;;;;;;;;;;5055611;28;20303;-85
2021/08/23 08:20:55;;;;;;;5.38;3.10;;;;;;;;;;5041128;28;20192;-84
2021/08/23 08:23:21;;;;;;;3.65;3.22;;;;;;;;;;5041615;28;20204;-85
2021/08/23 08:25:47;;;;;;;6.67;4.30;;;;;;;;;;5044206;28;20678;-85
2021/08/23 08:28:13;;;;;;;6.03;3.55;;;;;;;;;;5045375;28;20447;-84
2021/08/23 08:30:40;;;;;;;8.18;4.60;;;;;;;;;;5042861;28;20188;-85
2021/08/23 08:33:06;;;;;;;4.55;3.60;;;;;;;;;;5040968;28;20216;-84
2021/08/23 08:35:32;;;;;;;3.83;3.42;;;;;;;;;;5049742;28;20275;-84
2021/08/23 08:37:58;;;;;;;4.78;3.50;;;;;;;;;;5048625;28;20196;-85
2021/08/23 08:40:25;;;;;;;5.45;3.95;;;;;;;;;;5048939;28;20240;-85
2021/08/23 08:42:51;;;;;;;3.53;3.20;;;;;;;;;;5047317;28;20199;-85
2021/08/23 08:45:17;;;;;;;4.38;3.50;;;;;;;;;;5044671;28;20244;-85
2021/08/23 08:47:44;;;;;;;4.97;3.90;;;;;;;;;;5047825;28;20208;-85
2021/08/23 08:50:11;;;;;;;4.68;3.25;;;;;;;;;;5057056;28;20203;-84
2021/08/23 08:52:38;;;;;;;3.93;3.43;;;;;;;;;;5049871;28;20695;-85
2021/08/23 08:55:05;;;;;;;4.30;3.90;;;;;;;;;;5046944;28;20428;-86
2021/08/23 08:57:31;;;;;;;4.45;4.05;;;;;;;;;;5059017;28;20401;-85
2021/08/23 08:59:57;;;;;;;4.03;3.73;;;;;;;;;;5043362;28;20887;-85
2021/08/23 09:02:23;;;;;;;4.23;3.83;;;;;;;;;;5063506;28;20426;-84
2021/08/23 09:04:49;;;;;;;6.60;4.65;;;;;;;;;;5058932;28;20417;-84
2021/08/23 09:07:15;;;;;;;5.70;4.43;;;;;;;;;;5055355;28;20251;-85
2021/08/23 09:09:42;;;;;;;5.00;3.83;;;;;;;;;;5058970;28;20425;-85
2021/08/23 09:12:09;;;;;;;6.85;4.78;;;;;;;;;;5043081;28;20188;-85
2021/08/23 09:14:55;;;;;;;5.17;4.67;;;;;;;;;;5060022;28;20197;-84
2021/08/23 09:17:22;;;;;;;5.53;3.80;;;;;;;;;;5061861;28;20509;-85
2021/08/23 09:19:56;;;;;;;5.50;4.47;;;;;;;;;;5045926;28;20468;-85
2021/08/23 09:22:24;;;;;;;4.10;3.35;;;;;;;;;;5046547;28;20478;-85
2021/08/23 09:24:50;;;;;;;7.22;4.07;;;;;;;;;;5043996;28;20207;-86
2021/08/23 09:27:16;;;;;;;4.40;3.70;;;;;;;;;;5059658;28;20661;-84
2021/08/23 09:29:56;;;;;;;4.20;3.37;;;;;;;;;;5047250;28;20469;-82
2021/08/23 09:32:27;;;;;;;4.03;3.43;;;;;;;;;;5061285;28;20453;-85
2021/08/23 09:34:53;;;;;;;3.20;2.80;;;;;;;;;;5044334;28;20442;-86
2021/08/23 09:37:21;;;;;;;4.10;3.40;;;;;;;;;;5047820;28;20550;-85
2021/08/23 09:39:47;;;;;;;7.03;3.23;;;;;;;;;;5047304;28;20504;-85
2021/08/23 09:42:14;;;;;;;3.72;3.13;;;;;;;;;;5042479;28;20507;-84
2021/08/23 09:44:41;;;;;;;5.40;3.97;;;;;;;;;;5059483;28;20197;-85
2021/08/23 09:47:07;;;;;;;6.17;4.57;;;;;;;;;;5045272;28;20416;-85
2021/08/23 09:49:34;;;;;;;4.13;3.20;;;;;;;;;;5047158;28;20396;-85
2021/08/23 09:52:00;;;;;;;4.47;3.67;;;;;;;;;;5050138;28;20443;-85
2021/08/23 09:54:29;;;;;;;6.13;3.73;;;;;;;;;;5058819;28;20429;-84
2021/08/23 09:56:55;;;;;;;7.73;4.17;;;;;;;;;;5045018;28;20429;-85
2021/08/23 09:59:22;;;;;;;5.10;4.00;;;;;;;;;;5062607;28;20409;-85
2021/08/23 10:01:49;;;;;;;5.53;4.10;;;;;;;;;;5048756;28;20699;-84
2021/08/23 10:04:16;;;;;;;4.53;3.30;;;;;;;;;;5044364;28;20477;-85
2021/08/23 10:06:43;;;;;;;5.60;3.80;;;;;;;;;;5044200;28;20899;-85
2021/08/23 10:09:09;;;;;;;3.43;3.13;;;;;;;;;;5057642;28;20419;-85
2021/08/23 10:11:36;;;;;;;3.57;2.97;;;;;;;;;;5048217;28;20408;-84
2021/08/23 10:14:03;;;;;;;5.90;3.80;;;;;;;;;;5046368;28;20428;-85
2021/08/23 10:16:30;;;;;;;3.73;3.43;;;;;;;;;;5045570;28;20449;-84
2021/08/23 10:18:56;;;;;;;3.90;3.07;;;;;;;;;;5049036;28;20465;-85
2021/08/23 10:21:23;;;;;;;3.67;2.93;;;;;;;;;;5059167;28;20410;-86
2021/08/23 10:23:50;;;;;;;3.13;2.65;;;;;;;;;;5043530;28;20474;-85
2021/08/23 10:26:16;;;;;;;7.90;3.47;;;;;;;;;;5056414;28;20176;-86
2021/08/23 10:28:47;;;;;;;3.77;3.47;;;;;;;;;;5048122;28;20413;-85
2021/08/23 10:31:14;;;;;;;3.60;3.30;;;;;;;;;;5046539;28;20443;-85
2021/08/23 10:33:42;;;;;;;7.90;3.47;;;;;;;;;;5046071;28;20446;-85
2021/08/23 10:36:12;;;;;;;3.97;3.63;;;;;;;;;;5043054;28;20429;-85
2021/08/23 10:38:38;;;;;;;4.10;3.33;;;;;;;;;;5045431;28;20433;-83
2021/08/23 10:41:07;;;;;;;3.27;2.43;;;;;;;;;;5048075;28;20714;-84
2021/08/23 10:43:43;;;;;;;2.87;2.67;;;;;;;;;;5045954;28;20464;-85
2021/08/23 10:46:19;;;;;;;3.67;2.67;;;;;;;;;;5045966;28;20494;-84
2021/08/23 10:48:48;;;;;;;6.83;3.07;;;;;;;;;;5042820;28;20439;-84
2021/08/23 10:51:26;;;;;;;3.00;2.70;;;;;;;;;;5057883;28;20403;-85
2021/08/23 10:53:52;;;;;;;3.90;2.80;;;;;;;;;;5042569;28;20445;-84
2021/08/23 10:56:19;;;;;;;3.40;3.10;;;;;;;;;;5046681;28;20412;-85
2021/08/23 10:58:45;;;;;;;2.93;2.70;;;;;;;;;;5044577;28;20422;-86
2021/08/23 11:01:21;;;;;;;8.23;3.30;;;;;;;;;;5046038;28;20436;-85
2021/08/23 11:03:58;;;;;;;4.57;3.00;;;;;;;;;;5045910;28;20241;-85
2021/08/23 11:06:24;;;;;;;5.25;2.90;;;;;;;;;;5042998;28;20429;-85
2021/08/23 11:08:50;;;;;;;4.50;3.07;;;;;;;;;;5060009;28;20181;-84
2021/08/23 11:11:16;;;;;;;5.22;3.25;;;;;;;;;;5042764;28;20687;-83
2021/08/23 11:13:42;;;;;;;3.20;2.70;;;;;;;;;;5045223;28;20443;-84
2021/08/23 11:16:08;;;;;;;2.80;2.60;;;;;;;;;;5045455;28;20431;-86
2021/08/23 11:18:41;;;;;;;3.10;2.90;;;;;;;;;;5057603;28;20554;-85
2021/08/23 11:21:08;;;;;;;3.22;2.55;;;;;;;;;;5042082;28;20452;-85
2021/08/23 11:23:34;;;;;;;3.00;2.73;;;;;;;;;;5062141;28;20709;-85
2021/08/23 11:26:02;;;;;;;4.17;3.77;;;;;;;;;;5053333;28;20422;-86
2021/08/23 11:28:31;;;;;;;3.35;3.05;;;;;;;;;;5050302;28;20420;-85
2021/08/23 11:30:58;;;;;;;3.90;3.40;;;;;;;;;;5043995;28;20180;-86
2021/08/23 11:33:24;;;;;;;4.78;3.33;;;;;;;;;;5042028;28;20419;-84
2021/08/23 11:35:50;;;;;;;6.97;3.50;;;;;;;;;;5043285;28;20306;-84
2021/08/23 11:38:16;;;;;;;4.35;3.72;;;;;;;;;;5046989;28;20474;-83
2021/08/23 11:40:44;;;;;;;4.10;3.47;;;;;;;;;;5046273;28;20177;-85
2021/08/23 11:43:10;;;;;;;4.85;3.65;;;;;;;;;;5045296;28;20510;-84
2021/08/23 11:45:37;;;;;;;6.10;3.83;;;;;;;;;;5045284;28;20173;-85
2021/08/23 11:48:04;;;;;;;4.40;3.60;;;;;;;;;;5024330;28;20443;-84
2021/08/23 11:50:30;;;;;;;5.22;3.80;;;;;;;;;;5048023;28;20842;-85
2021/08/23 11:53:02;;;;;;;4.00;3.27;;;;;;;;;;5045527;28;20197;-84
2021/08/23 11:55:29;;;;;;;5.40;3.37;;;;;;;;;;5043910;28;20497;-85
2021/08/23 11:57:56;;;;;;;3.73;3.33;;;;;;;;;;5048051;28;20406;-85
2021/08/23 12:00:23;;;;;;;3.50;3.30;;;;;;;;;;5056476;28;20940;-84
2021/08/23 12:02:49;;;;;;;5.20;3.27;;;;;;;;;;5041218;28;20456;-83
2021/08/23 12:05:15;;;;;;;4.37;3.30;;;;;;;;;;5044971;28;20478;-84
2021/08/23 12:07:46;;;;;;;7.03;3.57;;;;;;;;;;5045552;28;20425;-84
2021/08/23 12:10:25;;;;;;;5.33;3.60;;;;;;;;;;5049253;28;20960;-85
2021/08/23 12:12:51;;;;;;;5.57;4.10;;;;;;;;;;5046810;28;20418;-85
2021/08/23 12:15:18;;;;;;;4.00;3.03;;;;;;;;;;5058666;28;20416;-84
2021/08/23 12:17:44;;;;;;;5.40;3.40;;;;;;;;;;5047255;28;20169;-84
2021/08/23 12:20:10;;;;;;;4.13;2.90;;;;;;;;;;5049405;28;20413;-85
2021/08/23 12:22:36;;;;;;;5.30;3.38;;;;;;;;;;5053423;28;20441;-84
2021/08/23 12:25:02;;;;;;;4.30;3.87;;;;;;;;;;5058557;28;20185;-85
2021/08/23 12:27:29;;;;;;;8.90;3.13;;;;;;;;;;5043900;28;20500;-85
2021/08/23 12:29:55;;;;;;;5.37;3.23;;;;;;;;;;5060574;28;20207;-84
2021/08/23 12:32:21;;;;;;;4.07;3.40;;;;;;;;;;5050000;28;20436;-83
2021/08/23 12:34:48;;;;;;;3.90;3.63;;;;;;;;;;5047115;28;20527;-85
2021/08/23 12:37:14;;;;;;;6.73;3.40;;;;;;;;;;5048090;28;20929;-83
2021/08/23 12:39:40;;;;;;;9.93;3.90;;;;;;;;;;5048633;28;20442;-84
2021/08/23 12:42:08;;;;;;;3.43;3.13;;;;;;;;;;5042700;28;20417;-84
2021/08/23 12:44:34;;;;;;;5.00;3.30;;;;;;;;;;5048851;28;20452;-84
2021/08/23 12:47:00;;;;;;;5.90;3.87;;;;;;;;;;5047605;28;20407;-85
2021/08/23 12:49:26;;;;;;;4.93;3.67;;;;;;;;;;5049251;28;20425;-84
2021/08/23 12:51:52;;;;;;;5.10;3.70;;;;;;;;;;5051550;28;20406;-85
2021/08/23 12:54:19;;;;;;;5.60;3.40;;;;;;;;;;5059062;28;20523;-85
2021/08/23 12:56:45;;;;;;;4.00;3.60;;;;;;;;;;5063064;28;21005;-85
2021/08/23 12:59:11;;;;;;;5.20;4.00;;;;;;;;;;5049545;28;20407;-85
2021/08/23 13:01:38;;;;;;;6.20;3.30;;;;;;;;;;5047556;28;20425;-84
2021/08/23 13:04:05;;;;;;;7.20;3.67;;;;;;;;;;5047965;28;20463;-85
2021/08/23 13:06:30;;;;;;;5.03;3.33;;;;;;;;;;5048663;28;20427;-85
2021/08/23 13:08:57;;;;;;;4.23;3.10;;;;;;;;;;5043907;28;20443;-85
2021/08/23 13:11:23;;;;;;;6.57;3.37;;;;;;;;;;5050214;28;20408;-86
2021/08/23 13:13:49;;;;;;;4.67;3.70;;;;;;;;;;5047707;28;20457;-85
2021/08/23 13:16:15;;;;;;;3.67;3.20;;;;;;;;;;5048897;28;20406;-85
2021/08/23 13:18:42;;;;;;;4.20;3.37;;;;;;;;;;5058909;28;20442;-86
2021/08/23 13:21:08;;;;;;;5.10;3.80;;;;;;;;;;5042380;28;20436;-85
2021/08/23 13:23:34;;;;;;;8.00;3.95;;;;;;;;;;5049374;28;20490;-85
2021/08/23 13:26:00;;;;;;;3.73;3.40;;;;;;;;;;5047902;28;20174;-85
2021/08/23 13:28:27;;;;;;;4.37;3.47;;;;;;;;;;5048325;28;20402;-84
2021/08/23 13:30:53;;;;;;;4.53;3.40;;;;;;;;;;5048237;28;20413;-85
2021/08/23 13:33:19;;;;;;;6.07;3.80;;;;;;;;;;5044016;28;20441;-84
2021/08/23 13:35:45;;;;;;;3.70;3.13;;;;;;;;;;5045421;28;20209;-85
2021/08/23 13:38:12;;;;;;;3.77;3.37;;;;;;;;;;5048911;28;20464;-85
2021/08/23 13:40:39;;;;;;;6.80;3.40;;;;;;;;;;5046633;28;20478;-85
2021/08/23 13:43:07;;;;;;;4.20;3.77;;;;;;;;;;5051352;28;20491;-83
2021/08/23 13:45:36;;;;;;;3.87;3.33;;;;;;;;;;5058219;28;20477;-85
2021/08/23 13:48:01;;;;;;;5.70;4.10;;;;;;;;;;5041482;28;20450;-85
2021/08/23 13:50:28;;;;;;;4.10;3.80;;;;;;;;;;5048493;28;20391;-85
2021/08/23 13:52:53;;;;;;;4.10;3.43;;;;;;;;;;5047702;28;20546;-85
2021/08/23 13:55:20;;;;;;;4.63;3.60;;;;;;;;;;5047593;28;20439;-85
2021/08/23 13:57:45;;;;;;;9.70;4.37;;;;;;;;;;5058703;28;20413;-84
2021/08/23 14:00:12;;;;;;;4.47;3.80;;;;;;;;;;5043298;28;20440;-85
2021/08/23 14:02:39;;;;;;;4.70;4.00;;;;;;;;;;5063148;28;20550;-83
2021/08/23 14:05:05;;;;;;;5.10;2.90;;;;;;;;;;5052435;28;20412;-85
2021/08/23 14:07:31;;;;;;;4.57;3.20;;;;;;;;;;5051057;28;20436;-85
2021/08/23 14:09:57;;;;;;;5.90;3.97;;;;;;;;;;5046997;28;20436;-84
2021/08/23 14:12:23;;;;;;;4.27;3.70;;;;;;;;;;5044469;28;20432;-84
2021/08/23 14:14:49;;;;;;;3.37;2.97;;;;;;;;;;5059149;28;20447;-84
2021/08/23 14:17:15;;;;;;;3.97;3.67;;;;;;;;;;5059204;28;20450;-85
2021/08/23 14:19:41;;;;;;;3.70;3.40;;;;;;;;;;5058473;28;20471;-83
2021/08/23 14:22:07;;;;;;;3.50;3.20;;;;;;;;;;5054464;28;20436;-85
2021/08/23 14:24:33;;;;;;;6.20;4.10;;;;;;;;;;5044928;28;20463;-86
2021/08/23 14:26:59;;;;;;;5.53;4.23;;;;;;;;;;5040296;28;20437;-84
2021/08/23 14:29:26;;;;;;;4.97;4.50;;;;;;;;;;5047948;28;20433;-85
2021/08/23 14:31:53;;;;;;;6.10;4.23;;;;;;;;;;5045422;28;20695;-85
2021/08/23 14:34:19;;;;;;;5.23;3.90;;;;;;;;;;5046719;28;20428;-86
2021/08/23 14:36:45;;;;;;;4.40;3.97;;;;;;;;;;5046899;28;20497;-85
2021/08/23 14:39:11;;;;;;;4.20;3.90;;;;;;;;;;5040937;28;20454;-85